Time;durP1;ratioP1;P1;durP2;ratioP2;P2;SDS_P1;SDS_P2;PMS_P1;PMS_P2;Temp;Humidity;BMP_temperature;BMP_pressure;BME280_temperature;BME280_humidity;BME280_pressure;Samples;Min_cycle;Max_cycle;Signal;HPM_P1;HPM_P2
2024/04/20 00:01:09;;;;;;;3.53;1.90;;;12.10;94.40;;;;;;5363122;26;20459;-41
2024/04/20 00:03:38;;;;;;;3.93;2.07;;;12.10;94.40;;;;;;5394868;26;20558;-42
2024/04/20 00:06:13;;;;;;;3.53;2.00;;;12.10;94.40;;;;;;5332774;26;20491;-42
2024/04/20 00:08:39;;;;;;;6.67;2.30;;;12.10;94.40;;;;;;5364416;26;21080;-42
2024/04/20 00:11:10;;;;;;;4.83;2.37;;;12.10;94.40;;;;;;5388369;26;20511;-42
2024/04/20 00:13:39;;;;;;;4.50;2.47;;;12.10;94.30;;;;;;5378699;26;20465;-42
2024/04/20 00:16:08;;;;;;;2.90;2.00;;;12.10;94.30;;;;;;5351790;26;20549;-40
2024/04/20 00:18:36;;;;;;;2.77;1.80;;;12.00;94.30;;;;;;5387676;26;20449;-42
2024/04/20 00:21:05;;;;;;;3.23;1.80;;;12.00;94.30;;;;;;5347947;26;20241;-40
2024/04/20 00:23:31;;;;;;;5.30;1.90;;;12.00;94.30;;;;;;5357468;26;20588;-42
2024/04/20 00:26:03;;;;;;;5.50;2.33;;;12.00;94.30;;;;;;5387903;26;20467;-41
2024/04/20 00:28:33;;;;;;;5.40;2.53;;;12.00;94.30;;;;;;5395251;26;21389;-41
2024/04/20 00:31:02;;;;;;;5.30;2.40;;;12.00;94.30;;;;;;5378147;26;20473;-38
2024/04/20 00:33:33;;;;;;;6.20;2.50;;;12.00;94.30;;;;;;5388473;26;21076;-41
2024/04/20 00:35:59;;;;;;;5.33;2.30;;;12.00;94.30;;;;;;5383758;26;20463;-42
2024/04/20 00:38:26;;;;;;;3.17;1.90;;;12.00;94.30;;;;;;5359557;26;20515;-41
2024/04/20 00:40:59;;;;;;;3.90;2.20;;;11.90;94.30;;;;;;5321969;26;20544;-42
2024/04/20 00:43:27;;;;;;;4.00;2.40;;;12.00;94.30;;;;;;5291999;26;21073;-41
2024/04/20 00:45:58;;;;;;;3.00;2.10;;;12.00;94.40;;;;;;5350562;26;20995;-42
2024/04/20 00:48:25;;;;;;;2.90;2.20;;;11.90;94.30;;;;;;5355778;26;21111;-40
2024/04/20 00:50:54;;;;;;;5.27;2.20;;;11.90;94.30;;;;;;5388021;26;20508;-42
2024/04/20 00:53:23;;;;;;;4.57;2.00;;;11.90;94.30;;;;;;5358402;26;20525;-42
2024/04/20 00:55:52;;;;;;;3.40;2.07;;;11.90;94.30;;;;;;5377110;26;20476;-41
2024/04/20 00:58:22;;;;;;;4.70;2.97;;;11.90;94.30;;;;;;5394778;26;20560;-39
2024/04/20 01:00:50;;;;;;;3.83;2.20;;;11.90;94.30;;;;;;5351048;26;20479;-41
2024/04/20 01:03:24;;;;;;;3.90;2.50;;;11.90;94.30;;;;;;5349735;26;20463;-42
2024/04/20 01:05:51;;;;;;;7.17;2.47;;;11.90;94.30;;;;;;5292399;26;20534;-41
2024/04/20 01:08:18;;;;;;;3.80;2.10;;;11.90;94.30;;;;;;5361724;26;20472;-42
2024/04/20 01:10:51;;;;;;;4.03;2.20;;;11.90;94.30;;;;;;5377940;26;20884;-41
2024/04/20 01:13:26;;;;;;;5.17;1.87;;;11.90;94.30;;;;;;5379378;26;20466;-42
2024/04/20 01:15:52;;;;;;;4.80;2.43;;;11.80;94.30;;;;;;5387554;26;20451;-42
2024/04/20 01:18:21;;;;;;;5.30;2.60;;;11.80;94.30;;;;;;5362020;26;20598;-42
2024/04/20 01:20:48;;;;;;;3.50;2.07;;;11.90;94.30;;;;;;5391890;26;20623;-42
2024/04/20 01:23:16;;;;;;;3.63;2.60;;;11.80;94.30;;;;;;5331692;26;20455;-41
2024/04/20 01:25:48;;;;;;;6.20;2.60;;;11.80;94.30;;;;;;5358930;26;20581;-40
2024/04/20 01:28:16;;;;;;;4.77;2.00;;;11.80;94.30;;;;;;5356685;26;20460;-40
2024/04/20 01:30:44;;;;;;;5.23;2.70;;;11.80;94.30;;;;;;5328453;26;20471;-42
2024/04/20 01:33:14;;;;;;;3.70;2.30;;;11.80;94.30;;;;;;5360998;26;20553;-41
2024/04/20 01:35:43;;;;;;;5.80;2.67;;;11.80;94.30;;;;;;5372542;26;20494;-41
2024/04/20 01:38:10;;;;;;;7.73;2.70;;;11.80;94.30;;;;;;5396324;26;20459;-41
2024/04/20 01:40:37;;;;;;;4.83;2.67;;;11.80;94.40;;;;;;5383770;26;21502;-41
2024/04/20 01:43:03;;;;;;;4.70;2.60;;;11.80;94.40;;;;;;5385848;26;21162;-42
2024/04/20 01:45:29;;;;;;;4.20;2.40;;;11.80;94.40;;;;;;5364846;26;20461;-42
2024/04/20 01:47:55;;;;;;;3.77;1.90;;;11.80;94.40;;;;;;5394899;26;21474;-42
2024/04/20 01:50:25;;;;;;;3.63;2.10;;;11.80;94.50;;;;;;5328470;26;20471;-42
2024/04/20 01:52:54;;;;;;;3.97;2.10;;;11.80;94.40;;;;;;5357754;26;20462;-41
2024/04/20 01:55:23;;;;;;;5.10;2.17;;;11.80;94.40;;;;;;5391417;26;20517;-42
2024/04/20 01:57:52;;;;;;;5.03;2.70;;;11.70;94.40;;;;;;5358458;26;21435;-40
2024/04/20 02:00:18;;;;;;;3.53;1.83;;;11.70;94.40;;;;;;5352800;26;20463;-41
2024/04/20 02:02:45;;;;;;;4.77;1.83;;;11.70;94.40;;;;;;5396676;26;20463;-41
2024/04/20 02:05:11;;;;;;;4.30;1.80;;;11.70;94.40;;;;;;5354346;26;20551;-41
2024/04/20 02:07:38;;;;;;;3.70;2.20;;;11.70;94.40;;;;;;5391013;26;20510;-42
2024/04/20 02:10:05;;;;;;;3.17;2.20;;;11.70;94.40;;;;;;5391117;26;20972;-38
2024/04/20 02:12:34;;;;;;;3.53;2.40;;;11.70;94.40;;;;;;5395776;26;20463;-39
2024/04/20 02:15:03;;;;;;;4.87;2.37;;;11.70;94.40;;;;;;5382411;26;20455;-41
2024/04/20 02:17:29;;;;;;;3.30;1.90;;;11.70;94.40;;;;;;5357781;26;20487;-41
2024/04/20 02:19:55;;;;;;;4.10;2.30;;;11.70;94.40;;;;;;5332374;26;20464;-41
2024/04/20 02:22:24;;;;;;;5.23;2.30;;;11.70;94.40;;;;;;5389323;26;20501;-41
2024/04/20 02:24:50;;;;;;;2.80;2.00;;;11.70;94.40;;;;;;5307699;26;21301;-40
2024/04/20 02:27:18;;;;;;;3.53;1.80;;;11.70;94.40;;;;;;5387277;26;20534;-41
2024/04/20 02:29:47;;;;;;;2.60;1.77;;;11.70;94.40;;;;;;5358958;26;21451;-41
2024/04/20 02:32:19;;;;;;;4.27;2.57;;;11.70;94.40;;;;;;5365665;26;20509;-40
2024/04/20 02:34:45;;;;;;;4.00;2.23;;;11.70;94.40;;;;;;5396792;26;20599;-42
2024/04/20 02:37:14;;;;;;;2.50;2.00;;;11.70;94.40;;;;;;5384915;26;20550;-42
2024/04/20 02:39:40;;;;;;;5.40;2.23;;;11.60;94.40;;;;;;5353717;26;20453;-39
2024/04/20 02:42:07;;;;;;;2.93;2.10;;;11.70;94.50;;;;;;5394407;26;20463;-41
2024/04/20 02:44:34;;;;;;;3.33;2.10;;;11.60;94.40;;;;;;5364183;26;20455;-41
2024/04/20 02:47:00;;;;;;;3.27;1.93;;;11.70;94.50;;;;;;5381694;26;21165;-39
2024/04/20 02:49:27;;;;;;;2.63;1.87;;;11.60;94.40;;;;;;5391804;26;20517;-42
2024/04/20 02:51:53;;;;;;;3.50;2.00;;;11.60;94.40;;;;;;5333867;26;20511;-41
2024/04/20 02:54:19;;;;;;;4.13;1.90;;;11.60;94.40;;;;;;5359395;26;20582;-40
2024/04/20 02:56:45;;;;;;;2.73;2.00;;;11.60;94.40;;;;;;5363932;26;20468;-42
2024/04/20 02:59:12;;;;;;;4.47;1.70;;;11.60;94.40;;;;;;5336170;26;20858;-42
2024/04/20 03:01:41;;;;;;;3.97;1.97;;;11.60;94.40;;;;;;5390503;26;20472;-40
2024/04/20 03:04:10;;;;;;;3.43;1.90;;;11.60;94.40;;;;;;5395627;26;21462;-41
2024/04/20 03:06:39;;;;;;;2.73;1.90;;;11.60;94.40;;;;;;5395118;26;20453;-38
2024/04/20 03:09:06;;;;;;;4.43;1.90;;;11.60;94.50;;;;;;5363553;26;20475;-39
2024/04/20 03:11:32;;;;;;;3.17;1.97;;;11.60;94.50;;;;;;5329875;26;21513;-40
2024/04/20 03:14:00;;;;;;;4.47;2.10;;;11.60;94.50;;;;;;5355948;26;20511;-42
2024/04/20 03:16:26;;;;;;;3.17;1.97;;;11.60;94.50;;;;;;5335387;26;20555;-42
2024/04/20 03:18:53;;;;;;;2.43;1.63;;;11.60;94.50;;;;;;5363590;26;20455;-41
2024/04/20 03:21:20;;;;;;;3.00;1.93;;;11.60;94.50;;;;;;5362916;26;20622;-40
2024/04/20 03:23:47;;;;;;;4.13;2.43;;;11.50;94.40;;;;;;5387913;26;20572;-42
2024/04/20 03:26:15;;;;;;;4.73;2.10;;;11.60;94.50;;;;;;5359399;26;20467;-41
2024/04/20 03:28:42;;;;;;;4.33;2.10;;;11.50;94.80;;;;;;5355709;26;20508;-42
2024/04/20 03:31:08;;;;;;;2.93;2.03;;;11.50;94.50;;;;;;5342481;26;20533;-41
2024/04/20 03:33:37;;;;;;;2.07;1.70;;;11.50;94.50;;;;;;5396101;26;21057;-42
2024/04/20 03:36:07;;;;;;;2.87;1.20;;;11.50;94.50;;;;;;5384384;26;20594;-42
2024/04/20 03:38:34;;;;;;;2.13;1.80;;;11.50;94.50;;;;;;5364251;26;20467;-42
2024/04/20 03:41:03;;;;;;;3.20;1.93;;;11.50;94.50;;;;;;5329022;26;20471;-42
2024/04/20 03:43:30;;;;;;;2.73;1.87;;;11.50;94.50;;;;;;5381426;26;20467;-42
2024/04/20 03:45:56;;;;;;;6.23;2.20;;;11.50;94.50;;;;;;5382177;26;20817;-37
2024/04/20 03:48:24;;;;;;;2.40;1.87;;;11.50;94.60;;;;;;5324827;26;21184;-39
2024/04/20 03:50:58;;;;;;;4.80;2.37;;;11.50;94.50;;;;;;5352398;26;20596;-40
2024/04/20 03:53:27;;;;;;;3.23;1.70;;;11.50;94.60;;;;;;5354336;26;20818;-41
2024/04/20 03:55:56;;;;;;;2.73;1.60;;;11.50;94.60;;;;;;5326307;26;20561;-40
2024/04/20 03:58:22;;;;;;;2.13;1.27;;;11.50;94.60;;;;;;5355165;26;20459;-38
2024/04/20 04:00:50;;;;;;;4.03;1.40;;;11.50;94.70;;;;;;5388635;26;20515;-42
2024/04/20 04:03:26;;;;;;;2.23;1.30;;;11.50;94.70;;;;;;5377507;26;20572;-40
2024/04/20 04:05:56;;;;;;;4.03;1.73;;;11.50;94.70;;;;;;5352925;26;20462;-40
2024/04/20 04:08:23;;;;;;;2.60;1.53;;;11.40;94.60;;;;;;5363324;26;21201;-42
2024/04/20 04:10:52;;;;;;;2.10;1.20;;;11.40;94.60;;;;;;5359244;26;20464;-40
2024/04/20 04:13:19;;;;;;;1.57;1.10;;;11.40;94.60;;;;;;5383229;26;21516;-42
2024/04/20 04:15:49;;;;;;;1.40;1.30;;;11.40;94.70;;;;;;5388848;26;20467;-41
2024/04/20 04:18:21;;;;;;;1.27;1.03;;;11.40;94.70;;;;;;5383888;26;21291;-42
2024/04/20 04:20:52;;;;;;;1.60;1.13;;;11.40;94.70;;;;;;5391139;26;20488;-42
2024/04/20 04:23:21;;;;;;;2.33;1.40;;;11.40;94.70;;;;;;5389247;26;20455;-42
2024/04/20 04:25:51;;;;;;;3.13;1.40;;;11.40;94.70;;;;;;5358019;26;20519;-40
2024/04/20 04:28:20;;;;;;;2.77;1.40;;;11.40;94.70;;;;;;5390396;26;20448;-42
2024/04/20 04:30:47;;;;;;;2.33;1.30;;;11.40;94.70;;;;;;5381023;26;20460;-41
2024/04/20 04:33:15;;;;;;;2.33;1.47;;;11.40;94.70;;;;;;5386295;26;20475;-41
2024/04/20 04:35:43;;;;;;;3.03;1.33;;;11.40;94.80;;;;;;5351249;26;20517;-41
2024/04/20 04:38:09;;;;;;;2.57;1.43;;;11.40;94.80;;;;;;5351397;26;20444;-42
2024/04/20 04:40:35;;;;;;;1.70;1.20;;;11.40;94.80;;;;;;5357444;26;20512;-40
2024/04/20 04:43:07;;;;;;;1.70;1.50;;;11.40;94.90;;;;;;5368920;26;20456;-41
2024/04/20 04:45:33;;;;;;;3.30;1.57;;;11.40;94.90;;;;;;5379800;26;20459;-42
2024/04/20 04:48:03;;;;;;;1.90;1.57;;;11.40;94.90;;;;;;5347031;26;20444;-42
2024/04/20 04:50:30;;;;;;;1.80;1.60;;;11.40;94.90;;;;;;5367694;26;20573;-42
2024/04/20 04:52:59;;;;;;;3.57;1.80;;;11.40;94.90;;;;;;5330502;26;20461;-42
2024/04/20 04:55:27;;;;;;;2.43;1.40;;;11.40;94.90;;;;;;5314052;26;20476;-42
2024/04/20 04:57:54;;;;;;;2.10;1.80;;;11.40;94.90;;;;;;5321376;26;20516;-41
2024/04/20 05:00:21;;;;;;;2.70;1.73;;;11.30;94.90;;;;;;5341954;26;20513;-41
2024/04/20 05:02:47;;;;;;;2.40;1.63;;;11.30;94.90;;;;;;5368599;26;21401;-42
2024/04/20 05:05:13;;;;;;;2.20;1.63;;;11.30;94.90;;;;;;5381843;26;20550;-41
2024/04/20 05:07:44;;;;;;;3.20;2.27;;;11.30;94.90;;;;;;5344438;26;20469;-41
2024/04/20 05:10:12;;;;;;;2.27;1.53;;;11.30;94.90;;;;;;5310863;26;20530;-42
2024/04/20 05:12:41;;;;;;;3.23;2.00;;;11.30;95.00;;;;;;5319266;26;20467;-42
2024/04/20 05:15:07;;;;;;;2.50;1.90;;;11.30;95.00;;;;;;5329314;26;20525;-41
2024/04/20 05:17:39;;;;;;;3.57;1.90;;;11.30;95.00;;;;;;5361340;26;20463;-42
2024/04/20 05:20:12;;;;;;;2.20;2.00;;;11.30;95.00;;;;;;5352498;26;20463;-42
2024/04/20 05:22:39;;;;;;;3.50;1.90;;;11.30;95.00;;;;;;5318642;26;20475;-41
2024/04/20 05:25:06;;;;;;;2.20;1.60;;;11.30;95.00;;;;;;5333012;26;20467;-39
2024/04/20 05:27:34;;;;;;;4.63;2.00;;;11.30;95.10;;;;;;5305365;26;20456;-38
2024/04/20 05:30:06;;;;;;;6.33;1.90;;;11.30;95.10;;;;;;5333695;26;20530;-40
2024/04/20 05:32:32;;;;;;;3.10;2.27;;;11.30;95.10;;;;;;5362657;26;20504;-41
2024/04/20 05:34:58;;;;;;;2.20;1.90;;;11.30;95.10;;;;;;5305004;26;20459;-40
2024/04/20 05:37:27;;;;;;;2.10;1.60;;;11.30;95.20;;;;;;5394535;26;20455;-41
2024/04/20 05:39:53;;;;;;;2.60;2.00;;;11.30;95.10;;;;;;5393780;26;20495;-40
2024/04/20 05:42:21;;;;;;;3.63;1.77;;;11.30;95.10;;;;;;5362223;26;20464;-40
2024/04/20 05:44:51;;;;;;;2.67;2.40;;;11.30;95.20;;;;;;5306295;26;20452;-41
2024/04/20 05:47:17;;;;;;;2.40;2.00;;;11.20;95.10;;;;;;5393296;26;20466;-41
2024/04/20 05:49:44;;;;;;;3.77;1.87;;;11.30;95.20;;;;;;5392306;26;20443;-41
2024/04/20 05:52:10;;;;;;;3.17;2.43;;;11.30;95.20;;;;;;5334269;26;20530;-38
2024/04/20 05:54:40;;;;;;;2.93;1.87;;;11.20;95.20;;;;;;5395081;26;21400;-41
2024/04/20 05:57:10;;;;;;;2.97;2.07;;;11.30;95.20;;;;;;5368843;26;20520;-41
2024/04/20 05:59:39;;;;;;;2.80;2.23;;;11.30;95.20;;;;;;5397309;26;20459;-39
2024/04/20 06:02:07;;;;;;;7.13;2.40;;;11.20;95.20;;;;;;5364378;26;20543;-41
2024/04/20 06:04:37;;;;;;;3.50;2.50;;;11.30;95.20;;;;;;5394345;26;21038;-37
2024/04/20 06:07:03;;;;;;;3.67;2.30;;;11.20;95.20;;;;;;5335543;26;20520;-38
2024/04/20 06:09:41;;;;;;;3.70;2.10;;;11.30;95.30;;;;;;5366309;26;20496;-41
2024/04/20 06:12:12;;;;;;;3.60;2.13;;;11.20;95.20;;;;;;5366494;26;21064;-39
2024/04/20 06:14:38;;;;;;;3.03;1.93;;;11.20;95.30;;;;;;5367196;26;20444;-41
2024/04/20 06:17:07;;;;;;;4.73;2.10;;;11.20;95.30;;;;;;5365264;26;20570;-39
2024/04/20 06:19:36;;;;;;;3.10;1.93;;;11.20;95.30;;;;;;5364471;26;20842;-41
2024/04/20 06:22:04;;;;;;;2.57;1.73;;;11.20;95.30;;;;;;5334176;26;20479;-39
2024/04/20 06:24:35;;;;;;;3.97;2.13;;;11.20;95.30;;;;;;5368114;26;20511;-41
2024/04/20 06:27:05;;;;;;;4.40;2.40;;;11.20;95.30;;;;;;5367876;26;20455;-38
2024/04/20 06:29:34;;;;;;;4.90;2.57;;;11.20;95.30;;;;;;5341036;26;21064;-40
2024/04/20 06:32:03;;;;;;;3.97;2.50;;;11.20;95.40;;;;;;5341001;26;20468;-41
2024/04/20 06:34:31;;;;;;;5.30;2.33;;;11.20;95.40;;;;;;5365387;26;20463;-40
2024/04/20 06:36:58;;;;;;;3.57;2.40;;;11.20;95.40;;;;;;5337299;26;20482;-38
2024/04/20 06:39:24;;;;;;;3.00;2.13;;;11.20;95.40;;;;;;5365052;26;21114;-40
2024/04/20 06:41:56;;;;;;;3.90;2.97;;;11.20;95.40;;;;;;5365585;26;20517;-41
2024/04/20 06:44:23;;;;;;;3.20;2.47;;;11.20;95.40;;;;;;5336120;26;20459;-41
2024/04/20 06:46:50;;;;;;;4.50;2.67;;;11.20;95.40;;;;;;5368108;26;20481;-42
2024/04/20 06:49:18;;;;;;;3.90;2.47;;;11.20;95.40;;;;;;5359641;26;20445;-40
2024/04/20 06:51:46;;;;;;;3.07;2.20;;;11.20;95.40;;;;;;5329190;26;21514;-41
2024/04/20 06:54:14;;;;;;;3.47;2.23;;;11.20;95.40;;;;;;5300168;26;20540;-40
2024/04/20 06:56:41;;;;;;;6.07;2.70;;;11.20;95.50;;;;;;5328583;26;20456;-41
2024/04/20 06:59:09;;;;;;;4.27;2.43;;;11.20;95.50;;;;;;5358260;26;20528;-41
2024/04/20 07:01:36;;;;;;;4.93;2.40;;;11.20;95.50;;;;;;5329723;26;20488;-42
2024/04/20 07:04:02;;;;;;;3.97;2.60;;;11.20;95.50;;;;;;5327845;26;20997;-41
2024/04/20 07:06:32;;;;;;;3.50;2.03;;;11.20;95.50;;;;;;5328667;26;20501;-38
2024/04/20 07:09:02;;;;;;;4.30;2.00;;;11.20;95.60;;;;;;5329285;26;20445;-39
2024/04/20 07:11:28;;;;;;;5.30;2.30;;;11.20;95.60;;;;;;5359964;26;20465;-41
2024/04/20 07:13:56;;;;;;;3.77;2.10;;;11.20;95.60;;;;;;5359855;26;20576;-40
2024/04/20 07:16:23;;;;;;;5.23;2.23;;;11.20;96.00;;;;;;5329162;26;20492;-41
2024/04/20 07:18:49;;;;;;;2.77;1.80;;;11.20;95.70;;;;;;5359768;26;20525;-41
2024/04/20 07:21:19;;;;;;;2.83;1.90;;;11.20;95.70;;;;;;5359743;26;21606;-40
2024/04/20 07:23:47;;;;;;;4.10;2.00;;;11.20;95.70;;;;;;5300737;26;20452;-41
2024/04/20 07:26:15;;;;;;;2.57;2.00;;;11.20;95.70;;;;;;5300697;26;21367;-40
2024/04/20 07:28:42;;;;;;;3.90;2.10;;;11.20;95.70;;;;;;5362188;26;21051;-42
2024/04/20 07:31:11;;;;;;;2.90;2.60;;;11.20;95.70;;;;;;5334010;26;20480;-41
2024/04/20 07:33:49;;;;;;;5.10;2.50;;;11.20;95.70;;;;;;5314312;21;20521;-40
2024/04/20 07:36:19;;;;;;;2.50;2.13;;;11.10;95.70;;;;;;5327940;26;20464;-40
2024/04/20 07:38:46;;;;;;;4.07;2.83;;;11.20;95.70;;;;;;5359363;26;20484;-40
2024/04/20 07:41:12;;;;;;;3.93;2.93;;;11.20;95.70;;;;;;5302108;26;20472;-41
2024/04/20 07:43:40;;;;;;;4.63;2.80;;;11.10;95.70;;;;;;5359826;26;20449;-41
2024/04/20 07:46:08;;;;;;;3.87;3.17;;;11.20;95.80;;;;;;5357953;26;20965;-40
2024/04/20 07:48:34;;;;;;;5.27;3.50;;;11.10;95.80;;;;;;5329227;26;20600;-40
2024/04/20 07:51:02;;;;;;;5.80;3.40;;;11.10;95.80;;;;;;5360104;26;20561;-39
2024/04/20 07:53:31;;;;;;;5.63;2.70;;;11.20;95.80;;;;;;5328195;26;20536;-42
2024/04/20 07:55:59;;;;;;;6.23;3.00;;;11.20;95.90;;;;;;5359593;26;20456;-40
2024/04/20 07:58:25;;;;;;;3.60;3.07;;;11.10;95.80;;;;;;5359429;26;20453;-40
2024/04/20 08:00:54;;;;;;;4.80;2.60;;;11.20;95.90;;;;;;5329038;26;20562;-39
2024/04/20 08:03:23;;;;;;;3.37;2.40;;;11.20;95.90;;;;;;5360812;26;20477;-41
2024/04/20 08:05:52;;;;;;;2.73;2.20;;;11.20;95.90;;;;;;5301451;26;20556;-41
2024/04/20 08:08:21;;;;;;;2.60;1.93;;;11.20;96.00;;;;;;5299824;26;20502;-39
2024/04/20 08:10:50;;;;;;;3.80;2.60;;;11.20;96.00;;;;;;5329122;26;20578;-41
2024/04/20 08:13:16;;;;;;;3.57;2.23;;;11.20;96.10;;;;;;5331432;26;20461;-41
2024/04/20 08:15:47;;;;;;;3.63;2.17;;;11.20;96.10;;;;;;5360002;26;20501;-41
2024/04/20 08:18:13;;;;;;;3.73;2.10;;;11.10;96.00;;;;;;5329565;26;20540;-39
2024/04/20 08:20:41;;;;;;;4.47;2.43;;;11.20;96.10;;;;;;5330589;26;20947;-41
2024/04/20 08:23:07;;;;;;;4.03;2.43;;;11.20;96.10;;;;;;5335290;26;20532;-41
2024/04/20 08:25:36;;;;;;;5.93;2.40;;;11.20;96.10;;;;;;5301267;26;20541;-41
2024/04/20 08:28:04;;;;;;;3.70;2.20;;;11.20;96.20;;;;;;5359334;26;20448;-41
2024/04/20 08:30:33;;;;;;;4.93;2.43;;;11.20;96.10;;;;;;5329572;26;20574;-41
2024/04/20 08:33:07;;;;;;;2.63;2.10;;;11.20;96.00;;;;;;5360165;26;20529;-39
2024/04/20 08:35:32;;;;;;;2.93;2.07;;;11.20;96.10;;;;;;5359939;26;20507;-38
2024/04/20 08:37:59;;;;;;;3.93;1.87;;;11.20;96.10;;;;;;5359408;26;20554;-41
2024/04/20 08:40:25;;;;;;;2.73;1.73;;;11.20;96.10;;;;;;5356989;26;20468;-40
2024/04/20 08:42:54;;;;;;;3.87;2.10;;;11.20;96.10;;;;;;5299586;26;20464;-41
2024/04/20 08:45:24;;;;;;;2.80;1.77;;;11.20;96.10;;;;;;5299738;26;21082;-41
2024/04/20 08:47:53;;;;;;;5.03;1.90;;;11.20;96.10;;;;;;5329098;26;20533;-40
2024/04/20 08:50:25;;;;;;;4.57;1.97;;;11.20;96.20;;;;;;5359047;26;20508;-41
2024/04/20 08:52:54;;;;;;;2.53;1.40;;;11.20;96.20;;;;;;5327048;26;20579;-41
2024/04/20 08:55:23;;;;;;;3.20;1.90;;;11.20;96.30;;;;;;5327451;26;20786;-38
2024/04/20 08:57:50;;;;;;;2.90;1.90;;;11.20;96.30;;;;;;5358681;26;21064;-39
2024/04/20 09:00:19;;;;;;;4.23;1.90;;;11.20;96.30;;;;;;5328138;26;20524;-41
2024/04/20 09:02:47;;;;;;;3.23;1.80;;;11.20;96.30;;;;;;5329136;26;20452;-41
2024/04/20 09:05:15;;;;;;;2.90;1.93;;;11.20;96.30;;;;;;5359126;26;20461;-41
2024/04/20 09:07:43;;;;;;;4.20;1.70;;;11.20;96.30;;;;;;5359054;26;20453;-41
2024/04/20 09:10:09;;;;;;;3.70;2.00;;;11.20;96.30;;;;;;5327975;26;20858;-40
2024/04/20 09:12:35;;;;;;;4.47;1.63;;;11.20;96.30;;;;;;5328075;26;20456;-41
2024/04/20 09:15:07;;;;;;;4.70;1.60;;;11.20;96.30;;;;;;5328085;26;20524;-39
2024/04/20 09:17:41;;;;;;;2.60;1.40;;;11.20;96.20;;;;;;5357841;26;20500;-41
2024/04/20 09:20:12;;;;;;;3.60;1.40;;;11.20;96.20;;;;;;5331372;26;20512;-41
2024/04/20 09:22:40;;;;;;;4.53;2.60;;;11.20;96.20;;;;;;5365953;26;20520;-40
2024/04/20 09:25:09;;;;;;;6.00;2.83;;;11.20;96.20;;;;;;5326729;26;20514;-39
2024/04/20 09:27:36;;;;;;;7.83;2.63;;;11.30;96.30;;;;;;5357178;26;20562;-41
2024/04/20 09:30:11;;;;;;;6.37;3.07;;;11.20;96.30;;;;;;5327104;26;21318;-40
2024/04/20 09:32:41;;;;;;;5.90;3.00;;;11.30;96.40;;;;;;5299405;26;20453;-39
2024/04/20 09:35:10;;;;;;;4.37;2.43;;;11.30;96.50;;;;;;5324699;26;20477;-41
2024/04/20 09:37:36;;;;;;;4.93;2.40;;;11.30;96.50;;;;;;5327315;26;20445;-41
2024/04/20 09:40:02;;;;;;;3.20;1.97;;;11.30;96.60;;;;;;5354724;26;20930;-41
2024/04/20 09:42:29;;;;;;;4.50;2.90;;;11.20;96.50;;;;;;5295233;26;20521;-41
2024/04/20 09:44:56;;;;;;;5.47;2.60;;;11.30;96.50;;;;;;5354705;26;20802;-39
2024/04/20 09:47:25;;;;;;;5.97;2.63;;;11.30;96.60;;;;;;5355079;26;20526;-41
2024/04/20 09:49:52;;;;;;;4.33;2.23;;;11.30;96.60;;;;;;5356058;26;20824;-41
2024/04/20 09:52:28;;;;;;;3.70;2.23;;;11.30;96.50;;;;;;5354142;26;20601;-40
2024/04/20 09:55:29;;;;;;;5.10;2.47;;;11.30;96.60;;;;;;5355390;26;21468;-41
2024/04/20 09:58:02;;;;;;;4.57;2.40;;;11.30;96.50;;;;;;5358511;26;20579;-41
2024/04/20 10:00:36;;;;;;;3.60;2.00;;;11.30;96.30;;;;;;5362128;26;20476;-42
2024/04/20 10:03:07;;;;;;;3.37;2.40;;;11.40;96.30;;;;;;5360320;26;20512;-40
2024/04/20 10:05:37;;;;;;;6.23;2.23;;;11.30;96.30;;;;;;5358694;26;21122;-39
2024/04/20 10:08:05;;;;;;;4.53;2.40;;;11.40;96.40;;;;;;5359576;26;20507;-37
2024/04/20 10:10:32;;;;;;;2.93;1.77;;;11.40;96.30;;;;;;5359428;26;20567;-40
2024/04/20 10:13:02;;;;;;;3.60;2.10;;;11.40;96.30;;;;;;5328111;26;20493;-40
2024/04/20 10:15:35;;;;;;;4.23;1.83;;;11.40;96.20;;;;;;5329367;26;20516;-41
2024/04/20 10:18:01;;;;;;;5.60;2.20;;;11.40;96.20;;;;;;5300465;26;20535;-40
2024/04/20 10:20:38;;;;;;;5.97;1.87;;;11.40;96.20;;;;;;5328986;26;21177;-41
2024/04/20 10:23:22;;;;;;;5.40;2.27;;;11.40;96.20;;;;;;5329483;26;20452;-41
2024/04/20 10:25:53;;;;;;;5.07;2.40;;;11.40;96.20;;;;;;5328789;26;20468;-39
2024/04/20 10:28:35;;;;;;;4.00;2.00;;;11.40;96.20;;;;;;5299347;26;20515;-41
2024/04/20 10:31:03;;;;;;;3.40;2.40;;;11.40;96.20;;;;;;5359918;26;20552;-41
2024/04/20 10:33:35;;;;;;;4.87;1.70;;;11.50;96.20;;;;;;5330721;26;20445;-41
2024/04/20 10:36:16;;;;;;;2.70;1.67;;;11.50;96.30;;;;;;5360440;26;20464;-41
2024/04/20 10:38:44;;;;;;;2.47;1.40;;;11.50;96.40;;;;;;5331608;26;20622;-39
2024/04/20 10:41:12;;;;;;;3.27;1.50;;;11.50;96.40;;;;;;5362824;26;20547;-41
2024/04/20 10:43:44;;;;;;;5.33;1.80;;;11.50;96.40;;;;;;5362372;26;21056;-41
2024/04/20 10:46:12;;;;;;;3.70;1.97;;;11.60;96.40;;;;;;5307006;26;20453;-40
2024/04/20 10:48:43;;;;;;;3.47;1.97;;;11.60;96.50;;;;;;5366124;26;20498;-41
2024/04/20 10:51:16;;;;;;;2.83;1.23;;;11.50;96.40;;;;;;5334513;26;21917;-41
2024/04/20 10:53:43;;;;;;;2.93;1.50;;;11.60;96.50;;;;;;5365403;26;20448;-41
2024/04/20 10:56:13;;;;;;;3.30;2.17;;;11.60;96.70;;;;;;5340410;26;20453;-41
2024/04/20 10:58:41;;;;;;;4.40;2.33;;;11.60;96.70;;;;;;5334875;26;20472;-41
2024/04/20 11:01:08;;;;;;;5.17;2.13;;;11.60;96.80;;;;;;5365756;26;20831;-41
2024/04/20 11:03:37;;;;;;;5.70;3.20;;;11.60;96.80;;;;;;5364997;26;20511;-41
2024/04/20 11:06:08;;;;;;;5.03;3.00;;;11.60;96.70;;;;;;5325990;26;21155;-42
2024/04/20 11:08:39;;;;;;;3.00;2.10;;;11.70;96.60;;;;;;5325159;26;20466;-39
2024/04/20 11:11:05;;;;;;;4.03;1.90;;;11.70;96.50;;;;;;5324032;26;20477;-41
2024/04/20 11:13:32;;;;;;;3.70;1.73;;;11.70;96.40;;;;;;5292727;26;20588;-41
2024/04/20 11:16:05;;;;;;;4.13;2.03;;;11.70;96.40;;;;;;5291627;26;20593;-41
2024/04/20 11:18:32;;;;;;;2.63;1.77;;;11.70;96.30;;;;;;5294997;26;21457;-39
2024/04/20 11:21:03;;;;;;;4.40;2.30;;;11.70;96.30;;;;;;5323809;26;20626;-41
2024/04/20 11:23:29;;;;;;;3.50;1.90;;;11.80;96.30;;;;;;5322566;26;20905;-41
2024/04/20 11:25:56;;;;;;;3.63;1.43;;;11.80;96.40;;;;;;5263301;26;21014;-41
2024/04/20 11:28:27;;;;;;;3.70;1.47;;;11.80;96.40;;;;;;5265864;26;21018;-41
2024/04/20 11:30:52;;;;;;;2.60;1.63;;;11.80;96.40;;;;;;5321710;26;20470;-40
2024/04/20 11:33:23;;;;;;;3.47;1.73;;;11.80;96.40;;;;;;5324745;26;20782;-41
2024/04/20 11:36:04;;;;;;;4.23;1.87;;;11.80;96.40;;;;;;5324944;26;20478;-41
2024/04/20 11:38:30;;;;;;;5.70;1.60;;;11.80;96.50;;;;;;5331290;26;20584;-41
2024/04/20 11:40:57;;;;;;;2.73;1.77;;;11.80;96.50;;;;;;5324318;26;20481;-41
2024/04/20 11:43:24;;;;;;;3.20;1.60;;;11.80;96.40;;;;;;5324141;26;20442;-41
2024/04/20 11:45:54;;;;;;;3.53;2.00;;;11.90;96.40;;;;;;5292594;26;20534;-41
2024/04/20 11:48:28;;;;;;;4.73;2.20;;;11.90;96.40;;;;;;5293675;26;20443;-39
2024/04/20 11:51:04;;;;;;;2.50;1.40;;;11.90;96.30;;;;;;5294032;26;20604;-41
2024/04/20 11:56:17;;;;;;;6.67;1.97;;;11.90;96.20;;;;;;5323712;26;20502;-42
2024/04/20 11:58:47;;;;;;;5.33;1.57;;;11.90;96.10;;;;;;5292795;26;20566;-39
2024/04/20 12:01:13;;;;;;;3.83;1.30;;;11.90;96.10;;;;;;5324295;26;20446;-40
2024/04/20 12:03:39;;;;;;;2.97;1.37;;;12.00;96.10;;;;;;5321889;26;20530;-40
2024/04/20 12:06:09;;;;;;;3.10;1.50;;;12.00;96.00;;;;;;5293465;26;20435;-39
2024/04/20 12:08:43;;;;;;;2.37;1.37;;;12.00;95.90;;;;;;5336123;26;20588;-41
2024/04/20 12:11:19;;;;;;;1.53;1.30;;;12.00;95.90;;;;;;5357737;26;21125;-41
2024/04/20 12:13:46;;;;;;;2.80;1.30;;;12.00;95.70;;;;;;5298743;26;20665;-41
2024/04/20 12:16:15;;;;;;;2.63;1.73;;;12.10;95.80;;;;;;5298733;26;20536;-38
2024/04/20 12:18:47;;;;;;;6.23;1.33;;;12.10;95.70;;;;;;5326390;26;21046;-41
2024/04/20 12:21:15;;;;;;;2.20;1.20;;;12.10;95.70;;;;;;5353503;26;20507;-42
2024/04/20 12:23:44;;;;;;;3.47;1.33;;;12.10;95.60;;;;;;5358949;26;21434;-39
2024/04/20 12:26:11;;;;;;;3.03;1.70;;;12.20;95.60;;;;;;5327693;26;20465;-37
2024/04/20 12:28:38;;;;;;;2.03;1.30;;;12.20;95.60;;;;;;5326511;26;20558;-41
2024/04/20 12:31:10;;;;;;;3.10;1.40;;;12.20;95.60;;;;;;5355492;26;20521;-41
2024/04/20 12:33:44;;;;;;;2.63;1.30;;;12.20;95.50;;;;;;5272599;26;20685;-41
2024/04/20 12:36:15;;;;;;;2.33;1.10;;;12.20;95.40;;;;;;5357551;26;20460;-39
2024/04/20 12:38:42;;;;;;;2.40;1.30;;;12.20;95.40;;;;;;5357331;26;20462;-39
2024/04/20 12:41:10;;;;;;;2.10;1.33;;;12.30;95.40;;;;;;5356773;26;20448;-41
2024/04/20 12:43:39;;;;;;;2.50;1.10;;;12.30;95.30;;;;;;5326206;26;20441;-39
2024/04/20 12:46:11;;;;;;;3.27;1.50;;;12.30;95.20;;;;;;5330723;26;20496;-42
2024/04/20 12:48:39;;;;;;;2.43;1.20;;;12.30;95.10;;;;;;5366025;26;20445;-40
2024/04/20 12:51:08;;;;;;;2.13;1.20;;;12.30;95.10;;;;;;5328737;26;20470;-41
2024/04/20 12:53:46;;;;;;;4.77;1.20;;;12.30;95.10;;;;;;5298108;26;20500;-41
2024/04/20 12:56:12;;;;;;;1.97;1.27;;;12.40;95.10;;;;;;5358207;26;20578;-41
2024/04/20 12:58:42;;;;;;;4.23;1.80;;;12.40;95.00;;;;;;5356667;26;20490;-41